createdAt,value
2022-09-23T00:01:38.409Z,49.17
2022-09-23T00:04:27.027Z,48.90
2022-09-23T00:07:17.115Z,48.47
2022-09-23T00:10:07.404Z,49.50
2022-09-23T00:12:55.995Z,50.80
2022-09-23T00:15:44.304Z,50.60
2022-09-23T00:18:32.648Z,51.80
2022-09-23T00:21:23.033Z,50.70
2022-09-23T00:24:12.685Z,50.47
2022-09-23T00:27:01.239Z,52.30
2022-09-23T00:29:49.819Z,54.13
2022-09-23T00:32:38.588Z,55.30
2022-09-23T00:35:27.082Z,56.63
2022-09-23T00:38:15.480Z,54.93
2022-09-23T00:41:05.729Z,57.43
2022-09-23T00:43:57.765Z,57.10
2022-09-23T00:46:46.005Z,54.33
2022-09-23T00:49:34.363Z,56.23
2022-09-23T00:52:25.387Z,56.57
2022-09-23T00:55:18.963Z,57.77
2022-09-23T00:58:12.621Z,58.67
2022-09-23T01:01:02.633Z,59.90
2022-09-23T01:03:52.327Z,56.87
2022-09-23T01:06:41.001Z,57.30
2022-09-23T01:09:29.810Z,58.60
2022-09-23T01:12:32.011Z,58.63
2022-09-23T01:15:25.779Z,60.30
2022-09-23T01:18:29.388Z,60.70
2022-09-23T01:21:30.173Z,61.43
2022-09-23T01:24:48.013Z,60.33
2022-09-23T01:27:55.932Z,58.80
2022-09-23T01:30:49.785Z,58.83
2022-09-23T01:33:42.520Z,59.70
2022-09-23T01:36:38.557Z,60.03
2022-09-23T01:39:35.273Z,59.07
2022-09-23T01:42:29.595Z,58.27
2022-09-23T01:45:26.081Z,58.90
2022-09-23T01:48:21.320Z,57.90
2022-09-23T01:51:14.757Z,59.40
2022-09-23T01:54:11.671Z,58.33
2022-09-23T01:57:05.264Z,58.33
2022-09-23T01:59:57.964Z,56.40
2022-09-23T02:02:50.728Z,58.50
2022-09-23T02:05:47.628Z,57.73
2022-09-23T02:08:38.788Z,57.40
2022-09-23T02:11:27.854Z,57.07
2022-09-23T02:14:20.547Z,57.30
2022-09-23T02:17:13.146Z,58.17
2022-09-23T02:20:04.580Z,59.93
2022-09-23T02:23:01.662Z,58.40
2022-09-23T02:25:59.088Z,58.70
2022-09-23T02:28:54.220Z,59.43
2022-09-23T02:31:46.584Z,59.30
2022-09-23T02:34:47.589Z,58.57
2022-09-23T02:37:43.621Z,59.97
2022-09-23T02:40:38.877Z,60.00
2022-09-23T02:43:36.149Z,60.13
2022-09-23T02:46:24.745Z,60.77
2022-09-23T02:49:17.751Z,59.77
2022-09-23T02:52:07.747Z,58.23
2022-09-23T02:54:56.259Z,58.87
2022-09-23T02:57:47.016Z,61.67
2022-09-23T03:00:44.475Z,60.47
2022-09-23T03:03:45.741Z,61.27
2022-09-23T03:06:43.253Z,61.60
2022-09-23T03:09:36.171Z,62.33
2022-09-23T03:12:36.155Z,61.00
2022-09-23T03:15:33.454Z,64.03
2022-09-23T03:18:28.347Z,64.20
2022-09-23T03:21:23.387Z,63.93
2022-09-23T03:24:14.442Z,62.63
2022-09-23T03:27:06.179Z,62.60
2022-09-23T03:29:55.915Z,65.13
2022-09-23T03:32:47.523Z,66.43
2022-09-23T03:35:59.137Z,67.83
2022-09-23T03:38:52.884Z,68.03
2022-09-23T03:41:48.460Z,68.70
2022-09-23T03:44:39.750Z,68.57
2022-09-23T03:47:31.120Z,69.67
2022-09-23T03:50:20.940Z,68.77
2022-09-23T03:53:09.347Z,69.30
2022-09-23T03:55:58.425Z,70.70
2022-09-23T03:58:46.722Z,70.47
2022-09-23T04:01:35.025Z,70.83
2022-09-23T04:04:23.479Z,70.57
2022-09-23T04:07:13.911Z,72.03
2022-09-23T04:10:02.315Z,73.30
2022-09-23T04:12:50.886Z,72.77
2022-09-23T04:15:39.675Z,72.80
2022-09-23T04:18:27.987Z,73.70
2022-09-23T04:21:16.946Z,71.87
2022-09-23T04:24:07.278Z,73.23
2022-09-23T04:26:57.342Z,75.27
2022-09-23T04:29:45.721Z,75.07
2022-09-23T04:32:33.961Z,76.37
2022-09-23T04:35:22.320Z,78.33
2022-09-23T04:38:12.022Z,80.03
2022-09-23T04:41:01.635Z,78.80
2022-09-23T04:43:49.929Z,79.00
2022-09-23T04:46:39.300Z,79.50
2022-09-23T04:49:27.654Z,77.60
2022-09-23T04:52:16.500Z,77.27
2022-09-23T04:55:09.146Z,74.43
2022-09-23T04:58:00.600Z,73.80
2022-09-23T05:00:48.950Z,74.27
2022-09-23T05:03:37.263Z,73.53
2022-09-23T05:06:26.324Z,75.47
2022-09-23T05:09:17.220Z,72.97
2022-09-23T05:12:06.019Z,72.83
2022-09-23T05:14:56.039Z,71.60
2022-09-23T05:17:44.382Z,71.17
2022-09-23T05:20:32.747Z,70.03
2022-09-23T05:23:23.455Z,70.47
2022-09-23T05:26:13.724Z,70.33
2022-09-23T05:29:02.012Z,71.30
2022-09-23T05:31:51.713Z,71.40
2022-09-23T05:34:40.442Z,69.00
2022-09-23T05:37:28.777Z,70.13
2022-09-23T05:40:17.427Z,69.57
2022-09-23T05:43:05.770Z,67.17
2022-09-23T05:46:05.984Z,67.40
2022-09-23T05:49:02.152Z,67.70
2022-09-23T05:51:51.100Z,64.87
2022-09-23T05:54:40.473Z,66.83
2022-09-23T05:57:29.431Z,66.20
2022-09-23T06:00:18.188Z,64.63
2022-09-23T06:03:07.451Z,62.27
2022-09-23T06:05:57.470Z,61.43
2022-09-23T06:08:46.299Z,59.17
2022-09-23T06:11:36.484Z,58.63
2022-09-23T06:14:24.836Z,56.80
2022-09-23T06:17:13.384Z,55.33
2022-09-23T06:20:02.209Z,52.43
2022-09-23T06:22:55.365Z,54.23
2022-09-23T06:25:44.058Z,53.17
2022-09-23T06:28:33.331Z,52.30
2022-09-23T06:31:21.783Z,52.97
2022-09-23T06:34:19.575Z,50.87
2022-09-23T06:37:18.038Z,50.13
2022-09-23T06:40:10.524Z,47.73
2022-09-23T06:42:59.717Z,45.43
2022-09-23T06:45:48.066Z,42.13
2022-09-23T06:48:36.740Z,39.90
2022-09-23T06:51:25.392Z,40.57
2022-09-23T06:54:13.910Z,39.37
2022-09-23T06:57:03.862Z,39.87
2022-09-23T06:59:52.284Z,41.03
2022-09-23T07:02:42.113Z,39.00
2022-09-23T07:05:38.457Z,40.13
2022-09-23T07:08:28.915Z,38.33
2022-09-23T07:11:22.421Z,40.23
2022-09-23T07:14:12.441Z,37.60
2022-09-23T07:17:03.823Z,38.57
2022-09-23T07:19:55.039Z,37.33
2022-09-23T07:22:44.246Z,36.33
2022-09-23T07:25:34.318Z,33.93
2022-09-23T07:28:22.854Z,33.93
2022-09-23T07:31:15.521Z,34.93
2022-09-23T07:34:05.010Z,35.03
2022-09-23T07:36:55.303Z,34.90
2022-09-23T07:39:44.491Z,28.83
2022-09-23T07:42:32.998Z,28.00
2022-09-23T07:45:28.847Z,28.27
2022-09-23T07:48:18.708Z,29.03
2022-09-23T07:51:11.775Z,26.30
2022-09-23T07:54:00.415Z,29.00
2022-09-23T07:56:49.233Z,26.97
2022-09-23T07:59:37.880Z,25.40
2022-09-23T08:02:27.917Z,23.10
2022-09-23T08:05:17.860Z,23.97
2022-09-23T08:08:07.321Z,22.30
2022-09-23T08:11:02.595Z,21.53
2022-09-23T08:13:53.212Z,18.37
2022-09-23T08:16:41.949Z,16.87
2022-09-23T08:19:30.392Z,18.10
2022-09-23T08:22:21.001Z,17.90
2022-09-23T08:25:10.311Z,18.53
2022-09-23T08:27:59.845Z,19.83
2022-09-23T08:30:50.414Z,19.37
2022-09-23T08:33:38.832Z,19.80
2022-09-23T08:36:27.583Z,20.10
2022-09-23T08:39:19.265Z,20.80
2022-09-23T08:42:15.776Z,17.07
2022-09-23T08:45:08.959Z,16.23
2022-09-23T08:48:10.800Z,15.00
2022-09-23T08:51:05.792Z,13.73
2022-09-23T08:53:54.438Z,12.77
2022-09-23T08:56:49.190Z,12.10
2022-09-23T08:59:43.190Z,12.13
2022-09-23T09:02:35.317Z,11.50
2022-09-23T09:05:28.458Z,12.47
2022-09-23T09:08:24.419Z,13.40
2022-09-23T09:11:19.363Z,13.20
2022-09-23T09:14:19.336Z,13.53
2022-09-23T09:17:10.763Z,14.53
2022-09-23T09:20:05.461Z,14.87
2022-09-23T09:22:57.860Z,15.37
2022-09-23T09:25:50.639Z,14.67
2022-09-23T09:28:43.620Z,13.63
2022-09-23T09:31:36.518Z,14.60
2022-09-23T09:34:31.972Z,14.00
2022-09-23T09:37:25.747Z,14.20
2022-09-23T09:40:16.490Z,13.17
2022-09-23T09:43:05.602Z,13.40
2022-09-23T09:46:05.143Z,8.37
2022-09-23T09:49:00.192Z,7.23
2022-09-23T09:51:48.680Z,8.27
2022-09-23T09:54:37.115Z,7.83
2022-09-23T09:57:35.222Z,7.13
2022-09-23T10:00:40.023Z,7.47
2022-09-23T10:03:38.739Z,7.03
2022-09-23T10:06:31.787Z,5.23
2022-09-23T10:09:20.296Z,4.60
2022-09-23T10:12:18.735Z,5.07
2022-09-23T10:15:31.432Z,4.67
2022-09-23T10:18:24.846Z,4.40
2022-09-23T10:21:15.410Z,3.38
2022-09-23T10:24:07.838Z,3.20
2022-09-23T10:27:01.561Z,2.85
2022-09-23T10:29:51.608Z,2.95
2022-09-23T10:32:45.640Z,2.58
2022-09-23T10:35:34.536Z,2.60
2022-09-23T10:38:22.840Z,2.65
2022-09-23T10:41:42.464Z,3.00
2022-09-23T10:44:58.622Z,2.50
2022-09-23T10:47:56.669Z,2.65
2022-09-23T10:50:49.792Z,2.53
2022-09-23T10:53:52.106Z,2.72
2022-09-23T10:56:47.030Z,2.88
2022-09-23T10:59:55.229Z,2.50
2022-09-23T11:03:02.923Z,3.22
2022-09-23T11:06:04.300Z,2.67
2022-09-23T11:09:20.191Z,2.78
2022-09-23T11:12:24.183Z,2.70
2022-09-23T11:15:32.764Z,2.70
2022-09-23T11:18:42.964Z,2.30
2022-09-23T11:21:56.220Z,2.38
2022-09-23T11:24:58.534Z,2.42
2022-09-23T11:28:04.050Z,2.20
2022-09-23T11:31:06.616Z,2.83
2022-09-23T11:34:09.700Z,2.28
2022-09-23T11:37:04.703Z,2.30
2022-09-23T11:39:58.777Z,2.38
2022-09-23T11:42:58.213Z,2.25
2022-09-23T11:45:52.444Z,2.47
2022-09-23T11:48:45.274Z,2.47
2022-09-23T11:51:39.627Z,2.80
2022-09-23T11:54:35.971Z,4.10
2022-09-23T11:57:42.565Z,2.70
2022-09-23T12:00:40.973Z,2.10
2022-09-23T12:03:44.361Z,2.17
2022-09-23T12:06:39.984Z,2.33
2022-09-23T12:09:57.120Z,2.50
2022-09-23T12:12:56.169Z,2.67
2022-09-23T12:16:00.065Z,2.30
2022-09-23T12:19:01.096Z,2.88
2022-09-23T12:22:07.042Z,2.97
2022-09-23T12:25:06.868Z,2.90
2022-09-23T12:27:57.052Z,2.65
2022-09-23T12:30:49.244Z,2.42
2022-09-23T12:33:39.025Z,2.63
2022-09-23T12:36:32.227Z,2.60
2022-09-23T12:39:28.461Z,4.00
2022-09-23T12:42:20.214Z,3.00
2022-09-23T12:45:34.926Z,3.00
2022-09-23T12:48:46.388Z,3.15
2022-09-23T12:51:36.535Z,2.85
2022-09-23T12:54:25.798Z,3.60
2022-09-23T12:57:15.273Z,2.72
2022-09-23T13:00:22.880Z,3.20
2022-09-23T13:03:31.664Z,2.92
2022-09-23T13:06:41.546Z,2.83
2022-09-23T13:09:33.089Z,3.05
2022-09-23T13:12:27.063Z,3.03
2022-09-23T13:15:24.143Z,3.50
2022-09-23T13:19:00.178Z,3.30
2022-09-23T13:22:08.037Z,3.58
2022-09-23T13:25:02.562Z,3.03
2022-09-23T13:27:53.566Z,2.70
2022-09-23T13:30:52.342Z,2.55
2022-09-23T13:33:45.168Z,3.03
2022-09-23T13:36:44.553Z,2.85
2022-09-23T13:39:34.781Z,2.70
2022-09-23T13:42:28.272Z,3.10
2022-09-23T13:45:20.417Z,2.60
2022-09-23T13:48:13.217Z,2.80
2022-09-23T13:51:10.247Z,2.53
2022-09-23T13:54:01.311Z,2.92
2022-09-23T13:56:51.270Z,2.80
2022-09-23T13:59:42.969Z,3.40
2022-09-23T14:02:31.350Z,3.20
2022-09-23T14:05:24.079Z,3.78
2022-09-23T14:08:13.280Z,3.83
2022-09-23T14:11:06.357Z,3.65
2022-09-23T14:13:57.035Z,4.05
2022-09-23T14:16:45.649Z,3.58
2022-09-23T14:19:36.498Z,3.90
2022-09-23T14:22:27.058Z,3.47
2022-09-23T14:25:17.471Z,3.70
2022-09-23T14:28:06.305Z,3.05
2022-09-23T14:30:58.546Z,3.53
2022-09-23T14:33:47.031Z,3.22
2022-09-23T14:36:54.619Z,3.40
2022-09-23T14:39:42.960Z,3.03
2022-09-23T14:42:38.528Z,3.40
2022-09-23T14:45:31.369Z,3.00
2022-09-23T14:48:25.176Z,2.97
2022-09-23T14:51:17.073Z,3.25
2022-09-23T14:54:26.242Z,3.10
2022-09-23T14:57:27.794Z,3.60
2022-09-23T15:00:19.217Z,3.50
2022-09-23T15:03:22.249Z,3.70
2022-09-23T15:06:10.796Z,3.42
2022-09-23T15:08:59.752Z,3.60
2022-09-23T15:11:48.385Z,3.80
2022-09-23T15:14:41.279Z,3.63
2022-09-23T15:17:35.134Z,4.00
2022-09-23T15:20:27.455Z,3.92
2022-09-23T15:23:34.583Z,4.22
2022-09-23T15:26:25.037Z,3.90
2022-09-23T15:29:13.653Z,4.38
2022-09-23T15:32:02.433Z,4.32
2022-09-23T15:34:51.582Z,4.00
2022-09-23T15:37:41.284Z,3.80
2022-09-23T15:40:31.644Z,3.05
2022-09-23T15:43:22.086Z,3.60
2022-09-23T15:46:17.542Z,3.60
2022-09-23T15:49:10.242Z,3.30
2022-09-23T15:52:01.129Z,3.03
2022-09-23T15:54:50.895Z,3.00
2022-09-23T15:57:39.279Z,2.72
2022-09-23T16:00:27.969Z,2.97
2022-09-23T16:03:16.361Z,3.17
2022-09-23T16:06:06.304Z,2.97
2022-09-23T16:08:54.589Z,4.05
2022-09-23T16:11:47.284Z,3.88
2022-09-23T16:14:35.721Z,3.60
2022-09-23T16:17:25.292Z,4.22
2022-09-23T16:20:23.657Z,3.92
2022-09-23T16:23:35.511Z,3.40
2022-09-23T16:26:26.925Z,3.90
2022-09-23T16:29:17.125Z,4.53
2022-09-23T16:32:05.650Z,4.00
2022-09-23T16:34:54.080Z,4.18
2022-09-23T16:37:47.017Z,4.40
2022-09-23T16:40:35.542Z,7.03
2022-09-23T16:43:23.990Z,7.88
2022-09-23T16:46:16.958Z,11.43
2022-09-23T16:49:05.582Z,8.45
2022-09-23T16:51:54.262Z,25.73
2022-09-23T16:54:43.436Z,25.13
2022-09-23T16:57:31.762Z,17.60
2022-09-23T17:00:37.391Z,16.97
2022-09-23T17:03:42.008Z,13.37
2022-09-23T17:06:30.327Z,14.90
2022-09-23T17:09:20.024Z,13.13
2022-09-23T17:12:15.307Z,12.00
2022-09-23T17:15:06.323Z,8.77
2022-09-23T17:17:54.665Z,8.77
2022-09-23T17:20:44.335Z,9.37
2022-09-23T17:23:35.179Z,8.30
2022-09-23T17:26:25.947Z,7.57
2022-09-23T17:29:15.111Z,6.90
2022-09-23T17:32:04.429Z,9.63
2022-09-23T17:34:52.798Z,7.10
2022-09-23T17:37:42.475Z,7.83
2022-09-23T17:40:30.901Z,7.20
2022-09-23T17:43:25.129Z,7.30
2022-09-23T17:46:16.352Z,6.40
2022-09-23T17:49:07.715Z,5.47
2022-09-23T17:51:56.922Z,5.80
2022-09-23T17:54:46.863Z,8.30
2022-09-23T17:57:35.214Z,9.33
2022-09-23T18:00:23.850Z,9.50
2022-09-23T18:03:12.167Z,8.80
2022-09-23T18:06:11.510Z,7.67
2022-09-23T18:09:03.912Z,7.83
2022-09-23T18:11:53.735Z,8.00
2022-09-23T18:14:42.249Z,7.60
2022-09-23T18:17:30.732Z,6.40
2022-09-23T18:20:19.267Z,6.17
2022-09-23T18:23:07.667Z,6.77
2022-09-23T18:25:56.789Z,6.47
2022-09-23T18:28:48.151Z,6.90
2022-09-23T18:31:38.163Z,6.40
2022-09-23T18:34:26.479Z,8.50
2022-09-23T18:37:16.001Z,7.40
2022-09-23T18:40:05.749Z,7.37
2022-09-23T18:42:54.139Z,8.30
2022-09-23T18:45:44.006Z,7.23
2022-09-23T18:48:51.834Z,7.80
2022-09-23T18:51:49.787Z,8.57
2022-09-23T18:54:38.282Z,9.03
2022-09-23T18:57:26.748Z,11.87
2022-09-23T19:00:15.537Z,14.57
2022-09-23T19:03:05.273Z,15.20
2022-09-23T19:05:53.784Z,13.80
2022-09-23T19:08:43.636Z,11.10
2022-09-23T19:11:32.845Z,13.47
2022-09-23T19:14:21.480Z,13.23
2022-09-23T19:17:09.843Z,15.17
2022-09-23T19:19:59.817Z,15.77
2022-09-23T19:22:49.378Z,15.70
2022-09-23T19:25:37.774Z,20.10
2022-09-23T19:28:26.088Z,19.67
2022-09-23T19:31:17.754Z,13.47
2022-09-23T19:34:10.172Z,14.37
2022-09-23T19:36:59.867Z,15.07
2022-09-23T19:39:48.397Z,16.40
2022-09-23T19:42:37.389Z,23.67
2022-09-23T19:45:27.265Z,24.90
2022-09-23T19:48:15.847Z,18.87
2022-09-23T19:51:04.665Z,14.07
2022-09-23T19:53:55.085Z,14.10
2022-09-23T19:56:43.411Z,14.03
2022-09-23T19:59:31.814Z,17.03
2022-09-23T20:02:20.373Z,14.57
2022-09-23T20:05:16.235Z,15.20
2022-09-23T20:08:06.899Z,15.27
2022-09-23T20:10:56.853Z,16.43
2022-09-23T20:13:49.783Z,16.00
2022-09-23T20:16:38.674Z,16.30
2022-09-23T20:19:28.123Z,17.57
2022-09-23T20:22:33.187Z,17.97
2022-09-23T20:25:21.889Z,17.37
2022-09-23T20:28:11.024Z,19.57
2022-09-23T20:30:59.754Z,20.37
2022-09-23T20:33:51.522Z,19.67
2022-09-23T20:36:41.447Z,19.93
2022-09-23T20:39:29.977Z,19.80
2022-09-23T20:42:19.422Z,20.27
2022-09-23T20:45:11.414Z,20.03
2022-09-23T20:48:00.335Z,20.80
2022-09-23T20:50:51.255Z,20.90
2022-09-23T20:53:39.569Z,20.30
2022-09-23T20:56:29.242Z,22.90
2022-09-23T20:59:18.119Z,19.93
2022-09-23T21:02:08.965Z,23.43
2022-09-23T21:04:57.495Z,29.63
2022-09-23T21:07:47.365Z,24.03
2022-09-23T21:10:36.448Z,23.07
2022-09-23T21:13:25.462Z,22.67
2022-09-23T21:16:16.243Z,21.23
2022-09-23T21:19:08.291Z,27.53
2022-09-23T21:21:56.559Z,31.47
2022-09-23T21:25:25.585Z,22.43
2022-09-23T21:27:54.022Z,17.87
2022-09-23T21:30:42.472Z,18.87
2022-09-23T21:33:31.552Z,19.40
2022-09-23T21:36:21.802Z,20.77
2022-09-23T21:39:11.516Z,19.77
2022-09-23T21:41:59.891Z,15.57
2022-09-23T21:44:48.176Z,17.90
2022-09-23T21:47:36.517Z,20.73
2022-09-23T21:50:28.009Z,20.23
2022-09-23T21:53:17.864Z,24.50
2022-09-23T21:56:08.334Z,22.93
2022-09-23T21:58:59.563Z,23.63
2022-09-23T22:01:53.953Z,23.57
2022-09-23T22:04:42.812Z,22.77
2022-09-23T22:07:32.133Z,23.77
2022-09-23T22:10:21.874Z,23.70
2022-09-23T22:13:12.913Z,23.47
2022-09-23T22:16:03.335Z,23.73
2022-09-23T22:18:52.207Z,23.97
2022-09-23T22:21:42.375Z,25.83
2022-09-23T22:24:30.667Z,23.47
2022-09-23T22:27:21.444Z,23.10
2022-09-23T22:30:29.140Z,23.70
2022-09-23T22:33:17.489Z,25.87
2022-09-23T22:36:06.283Z,23.77
2022-09-23T22:38:59.132Z,25.17
2022-09-23T22:41:48.116Z,26.47
2022-09-23T22:44:37.905Z,27.80
2022-09-23T22:47:27.174Z,23.80
2022-09-23T22:50:16.012Z,24.33
2022-09-23T22:53:04.393Z,26.10
2022-09-23T22:56:01.149Z,24.07
2022-09-23T22:58:49.445Z,24.63
2022-09-23T23:01:39.707Z,23.40
2022-09-23T23:04:29.859Z,25.03
2022-09-23T23:07:21.120Z,28.73
2022-09-23T23:10:10.552Z,31.00
2022-09-23T23:12:59.191Z,31.47
2022-09-23T23:15:47.525Z,29.13
2022-09-23T23:18:40.236Z,30.40
2022-09-23T23:21:28.711Z,27.23
2022-09-23T23:24:18.919Z,26.60
2022-09-23T23:27:07.228Z,23.50
2022-09-23T23:29:55.577Z,23.20
2022-09-23T23:32:43.852Z,24.13
2022-09-23T23:35:33.514Z,23.90
2022-09-23T23:38:21.888Z,23.40
2022-09-23T23:41:15.085Z,22.23
2022-09-23T23:44:04.116Z,22.97
2022-09-23T23:46:52.865Z,22.60
2022-09-23T23:49:41.291Z,22.93
2022-09-23T23:52:30.954Z,26.40
2022-09-23T23:55:19.258Z,28.73
2022-09-23T23:58:07.492Z,31.23
